createdAt,value
2022-11-16T00:00:02.769Z,6.94
2022-11-16T00:02:31.887Z,7.00
2022-11-16T00:04:58.415Z,6.89
2022-11-16T00:07:24.858Z,7.01
2022-11-16T00:09:51.201Z,7.06
2022-11-16T00:12:17.653Z,7.03
2022-11-16T00:14:44.225Z,6.96
2022-11-16T00:17:10.630Z,6.89
2022-11-16T00:19:37.065Z,6.90
2022-11-16T00:22:03.436Z,6.84
2022-11-16T00:24:29.816Z,6.73
2022-11-16T00:26:56.341Z,6.73
2022-11-16T00:29:22.733Z,6.65
2022-11-16T00:31:49.056Z,6.60
2022-11-16T00:34:15.553Z,6.75
2022-11-16T00:36:41.918Z,6.83
2022-11-16T00:39:08.296Z,6.84
2022-11-16T00:41:34.710Z,6.83
2022-11-16T00:44:01.048Z,6.95
2022-11-16T00:46:27.526Z,7.07
2022-11-16T00:48:53.857Z,7.02
2022-11-16T00:51:20.202Z,6.98
2022-11-16T00:53:46.524Z,6.88
2022-11-16T00:56:12.923Z,6.92
2022-11-16T00:58:39.274Z,6.89
2022-11-16T01:01:05.712Z,6.95
2022-11-16T01:03:32.385Z,6.94
2022-11-16T01:05:59.176Z,6.91
2022-11-16T01:08:25.626Z,6.92
2022-11-16T01:10:52.028Z,6.88
2022-11-16T01:13:18.463Z,6.80
2022-11-16T01:15:44.885Z,6.80
2022-11-16T01:18:11.288Z,6.84
2022-11-16T01:20:37.641Z,6.93
2022-11-16T01:23:04.027Z,7.02
2022-11-16T01:25:30.407Z,7.05
2022-11-16T01:27:56.743Z,7.03
2022-11-16T01:30:23.125Z,7.03
2022-11-16T01:32:49.558Z,7.05
2022-11-16T01:35:15.915Z,7.07
2022-11-16T01:37:42.298Z,7.09
2022-11-16T01:40:08.728Z,7.03
2022-11-16T01:42:35.134Z,6.90
2022-11-16T01:45:01.484Z,6.97
2022-11-16T01:47:27.955Z,7.00
2022-11-16T01:49:54.309Z,7.03
2022-11-16T01:52:20.709Z,6.92
2022-11-16T01:54:47.198Z,6.79
2022-11-16T01:57:13.554Z,6.75
2022-11-16T01:59:39.910Z,6.72
2022-11-16T02:02:06.447Z,6.75
2022-11-16T02:04:32.797Z,6.85
2022-11-16T02:06:59.233Z,6.69
2022-11-16T02:09:25.763Z,6.59
2022-11-16T02:11:52.206Z,6.62
2022-11-16T02:14:18.743Z,6.70
2022-11-16T02:16:45.448Z,6.56
2022-11-16T02:19:11.820Z,6.71
2022-11-16T02:21:38.280Z,6.77
2022-11-16T02:24:04.713Z,6.79
2022-11-16T02:26:31.301Z,6.82
2022-11-16T02:28:57.841Z,6.82
2022-11-16T02:31:24.629Z,6.77
2022-11-16T02:33:51.069Z,6.82
2022-11-16T02:36:17.511Z,6.84
2022-11-16T02:38:43.967Z,6.71
2022-11-16T02:41:10.900Z,6.72
2022-11-16T02:43:37.350Z,6.57
2022-11-16T02:46:03.848Z,6.63
2022-11-16T02:48:30.651Z,6.78
2022-11-16T02:50:57.156Z,6.72
2022-11-16T02:53:23.667Z,6.78
2022-11-16T02:55:49.984Z,6.82
2022-11-16T02:58:16.599Z,6.71
2022-11-16T03:00:42.970Z,6.60
2022-11-16T03:03:09.433Z,6.44
2022-11-16T03:05:35.804Z,6.51
2022-11-16T03:08:02.225Z,6.64
2022-11-16T03:10:28.588Z,6.71
2022-11-16T03:12:54.934Z,6.77
2022-11-16T03:15:21.335Z,6.82
2022-11-16T03:17:47.701Z,6.85
2022-11-16T03:20:14.262Z,6.82
2022-11-16T03:22:40.668Z,6.90
2022-11-16T03:25:07.027Z,6.95
2022-11-16T03:27:33.379Z,6.88
2022-11-16T03:29:59.824Z,6.86
2022-11-16T03:32:26.248Z,6.88
2022-11-16T03:34:52.829Z,6.93
2022-11-16T03:37:19.215Z,6.93
2022-11-16T03:39:45.594Z,6.93
2022-11-16T03:42:12.229Z,6.92
2022-11-16T03:44:38.664Z,6.94
2022-11-16T03:47:05.121Z,6.86
2022-11-16T03:49:31.476Z,6.83
2022-11-16T03:51:57.917Z,6.80
2022-11-16T03:54:24.353Z,6.85
2022-11-16T03:56:50.782Z,6.59
2022-11-16T03:59:17.220Z,6.57
2022-11-16T04:01:44.993Z,6.65
2022-11-16T04:04:11.556Z,6.60
2022-11-16T04:06:37.980Z,6.42
2022-11-16T04:09:04.657Z,6.29
2022-11-16T04:11:31.060Z,6.48
2022-11-16T04:13:57.424Z,6.61
2022-11-16T04:16:23.810Z,6.62
2022-11-16T04:18:50.152Z,6.60
2022-11-16T04:21:16.505Z,6.68
2022-11-16T04:23:42.911Z,6.55
2022-11-16T04:26:09.251Z,6.50
2022-11-16T04:28:36.045Z,6.42
2022-11-16T04:31:02.654Z,6.51
2022-11-16T04:33:29.027Z,6.54
2022-11-16T04:35:55.401Z,6.50
2022-11-16T04:38:21.766Z,6.36
2022-11-16T04:40:48.190Z,6.43
2022-11-16T04:43:14.657Z,6.46
2022-11-16T04:45:41.514Z,6.42
2022-11-16T04:48:08.212Z,6.57
2022-11-16T04:50:34.688Z,6.71
2022-11-16T04:53:01.054Z,6.59
2022-11-16T04:55:27.408Z,6.44
2022-11-16T04:57:53.817Z,6.45
2022-11-16T05:00:20.167Z,6.46
2022-11-16T05:02:46.558Z,6.58
2022-11-16T05:05:13.407Z,6.46
2022-11-16T05:07:39.881Z,6.46
2022-11-16T05:10:06.331Z,6.62
2022-11-16T05:12:32.736Z,6.71
2022-11-16T05:14:59.146Z,6.44
2022-11-16T05:17:25.502Z,6.46
2022-11-16T05:19:52.131Z,6.55
2022-11-16T05:22:20.859Z,6.51
2022-11-16T05:24:47.298Z,6.53
2022-11-16T05:27:13.733Z,6.50
2022-11-16T05:29:40.212Z,6.42
2022-11-16T05:32:06.550Z,6.38
2022-11-16T05:34:32.937Z,6.38
2022-11-16T05:36:59.310Z,6.42
2022-11-16T05:39:25.736Z,6.27
2022-11-16T05:41:52.106Z,6.18
2022-11-16T05:44:18.633Z,6.28
2022-11-16T05:46:45.006Z,6.41
2022-11-16T05:49:11.477Z,6.58
2022-11-16T05:51:37.900Z,6.61
2022-11-16T05:54:04.259Z,6.59
2022-11-16T05:56:30.767Z,6.55
2022-11-16T05:58:57.200Z,6.53
2022-11-16T06:01:23.598Z,6.54
2022-11-16T06:03:50.235Z,6.43
2022-11-16T06:06:16.590Z,6.53
2022-11-16T06:08:42.999Z,6.57
2022-11-16T06:11:09.399Z,6.52
2022-11-16T06:13:36.967Z,6.47
2022-11-16T06:16:03.558Z,6.25
2022-11-16T06:18:30.066Z,6.32
2022-11-16T06:20:56.586Z,6.47
2022-11-16T06:23:22.977Z,6.52
2022-11-16T06:25:49.499Z,6.46
2022-11-16T06:28:15.868Z,6.48
2022-11-16T06:30:42.324Z,6.56
2022-11-16T06:33:08.768Z,6.70
2022-11-16T06:35:35.434Z,6.66
2022-11-16T06:38:01.887Z,6.68
2022-11-16T06:40:28.364Z,6.69
2022-11-16T06:42:54.751Z,6.73
2022-11-16T06:45:21.188Z,6.75
2022-11-16T06:47:47.601Z,6.75
2022-11-16T06:50:13.959Z,6.84
2022-11-16T06:52:40.335Z,6.84
2022-11-16T06:55:06.711Z,6.85
2022-11-16T06:57:33.275Z,6.79
2022-11-16T06:59:59.653Z,6.83
2022-11-16T07:02:26.178Z,6.78
2022-11-16T07:04:52.808Z,6.80
2022-11-16T07:07:19.275Z,6.76
2022-11-16T07:09:45.665Z,6.84
2022-11-16T07:12:12.045Z,6.73
2022-11-16T07:14:38.394Z,6.77
2022-11-16T07:17:09.247Z,6.69
2022-11-16T07:19:36.486Z,6.75
2022-11-16T07:22:02.928Z,6.89
2022-11-16T07:24:29.421Z,6.97
2022-11-16T07:26:55.897Z,7.01
2022-11-16T07:29:25.349Z,7.03
2022-11-16T07:31:51.955Z,6.93
2022-11-16T07:34:18.373Z,6.84
2022-11-16T07:36:44.860Z,6.82
2022-11-16T07:39:11.236Z,6.80
2022-11-16T07:41:37.672Z,6.74
2022-11-16T07:44:06.378Z,6.74
2022-11-16T07:46:49.983Z,6.77
2022-11-16T07:49:16.381Z,6.70
2022-11-16T07:51:42.872Z,6.74
2022-11-16T07:54:09.330Z,6.78
2022-11-16T07:56:35.878Z,6.89
2022-11-16T07:59:02.267Z,6.94
2022-11-16T08:01:28.801Z,6.94
2022-11-16T08:03:55.196Z,6.93
2022-11-16T08:06:21.669Z,6.98
2022-11-16T08:08:48.041Z,6.98
2022-11-16T08:11:14.611Z,7.01
2022-11-16T08:13:40.973Z,7.01
2022-11-16T08:16:07.337Z,6.95
2022-11-16T08:18:33.936Z,6.92
2022-11-16T08:21:00.639Z,6.96
2022-11-16T08:23:27.255Z,6.95
2022-11-16T08:25:54.060Z,6.90
2022-11-16T08:28:20.453Z,6.91
2022-11-16T08:30:52.481Z,6.96
2022-11-16T08:33:20.110Z,6.86
2022-11-16T08:35:46.550Z,6.94
2022-11-16T08:38:12.983Z,6.92
2022-11-16T08:40:39.836Z,6.89
2022-11-16T08:43:06.299Z,6.91
2022-11-16T08:45:32.714Z,6.90
2022-11-16T08:48:04.017Z,6.86
2022-11-16T08:50:33.484Z,6.87
2022-11-16T08:53:06.288Z,7.08
2022-11-16T08:55:32.695Z,6.92
2022-11-16T08:57:59.067Z,6.91
2022-11-16T09:00:26.670Z,6.94
2022-11-16T09:02:53.133Z,6.93
2022-11-16T09:05:19.550Z,6.93
2022-11-16T09:07:46.102Z,6.93
2022-11-16T09:10:12.484Z,7.01
2022-11-16T09:12:38.860Z,6.85
2022-11-16T09:15:05.234Z,6.91
2022-11-16T09:17:31.794Z,6.96
2022-11-16T09:19:58.257Z,6.98
2022-11-16T09:22:24.822Z,6.89
2022-11-16T09:24:51.243Z,6.88
2022-11-16T09:27:17.786Z,6.89
2022-11-16T09:29:44.381Z,6.94
2022-11-16T09:32:10.817Z,6.94
2022-11-16T09:34:37.452Z,6.97
2022-11-16T09:37:03.829Z,6.97
2022-11-16T09:39:31.648Z,6.99
2022-11-16T09:41:58.682Z,7.08
2022-11-16T09:44:25.169Z,7.06
2022-11-16T09:46:51.598Z,7.02
2022-11-16T09:49:18.188Z,7.09
2022-11-16T09:51:45.901Z,7.01
2022-11-16T09:54:12.740Z,7.05
2022-11-16T09:56:39.170Z,7.03
2022-11-16T09:59:05.532Z,7.09
2022-11-16T10:01:32.218Z,7.04
2022-11-16T10:03:58.666Z,7.13
2022-11-16T10:06:25.020Z,7.08
2022-11-16T10:08:51.479Z,7.12
2022-11-16T10:11:17.876Z,7.16
2022-11-16T10:13:52.029Z,6.94
2022-11-16T10:16:18.407Z,6.97
2022-11-16T10:18:44.786Z,7.06
2022-11-16T10:21:11.360Z,7.07
2022-11-16T10:23:37.797Z,6.82
2022-11-16T10:26:04.189Z,6.78
2022-11-16T10:28:30.993Z,6.56
2022-11-16T10:30:57.374Z,6.28
2022-11-16T10:33:23.780Z,6.25
2022-11-16T10:35:50.209Z,6.59
2022-11-16T10:38:16.635Z,6.77
2022-11-16T10:40:42.971Z,6.90
2022-11-16T10:43:09.680Z,6.91
2022-11-16T10:45:36.019Z,7.02
2022-11-16T10:48:02.630Z,7.17
2022-11-16T10:50:29.141Z,7.12
2022-11-16T10:52:55.940Z,7.20
2022-11-16T10:55:22.511Z,7.18
2022-11-16T10:57:48.974Z,7.28
2022-11-16T11:00:21.037Z,7.35
2022-11-16T11:02:49.330Z,7.36
2022-11-16T11:05:15.784Z,7.31
2022-11-16T11:07:42.178Z,7.25
2022-11-16T11:10:08.673Z,7.27
2022-11-16T11:12:35.028Z,7.34
2022-11-16T11:15:01.442Z,7.40
2022-11-16T11:17:28.208Z,7.38
2022-11-16T11:19:54.706Z,7.37
2022-11-16T11:22:21.077Z,7.32
2022-11-16T11:24:47.598Z,7.31
2022-11-16T11:27:14.007Z,7.31
2022-11-16T11:29:40.515Z,7.27
2022-11-16T11:32:06.956Z,7.30
2022-11-16T11:34:35.599Z,7.28
2022-11-16T11:37:02.011Z,7.28
2022-11-16T11:39:28.825Z,7.29
2022-11-16T11:41:55.496Z,7.44
2022-11-16T11:44:21.916Z,7.37
2022-11-16T11:47:35.291Z,7.41
2022-11-16T11:49:34.832Z,7.28
2022-11-16T11:52:01.213Z,7.11
2022-11-16T11:54:27.677Z,7.09
2022-11-16T11:56:54.066Z,7.33
2022-11-16T11:59:20.782Z,7.13
2022-11-16T12:01:47.653Z,6.90
2022-11-16T12:04:13.993Z,6.78
2022-11-16T12:06:43.944Z,6.97
2022-11-16T12:09:10.841Z,7.20
2022-11-16T12:11:37.400Z,7.26
2022-11-16T12:14:03.904Z,7.21
2022-11-16T12:16:30.266Z,7.33
2022-11-16T12:18:56.738Z,7.23
2022-11-16T12:21:23.116Z,7.20
2022-11-16T12:23:49.519Z,7.33
2022-11-16T12:26:15.957Z,7.37
2022-11-16T12:28:44.921Z,7.43
2022-11-16T12:31:13.663Z,6.99
2022-11-16T12:33:40.273Z,7.17
2022-11-16T12:36:06.941Z,7.25
2022-11-16T12:38:33.756Z,7.01
2022-11-16T12:41:00.230Z,7.04
2022-11-16T12:43:26.609Z,7.19
2022-11-16T12:45:52.993Z,7.19
2022-11-16T12:48:19.382Z,7.27
2022-11-16T12:50:45.820Z,7.50
2022-11-16T12:53:12.606Z,7.28
2022-11-16T12:55:38.987Z,7.40
2022-11-16T12:58:05.377Z,7.64
2022-11-16T13:00:31.744Z,7.62
2022-11-16T13:02:58.534Z,7.52
2022-11-16T13:05:25.940Z,7.24
2022-11-16T13:07:52.296Z,7.24
2022-11-16T13:10:18.704Z,7.27
2022-11-16T13:12:45.312Z,7.36
2022-11-16T13:15:11.697Z,7.21
2022-11-16T13:17:38.107Z,7.08
2022-11-16T13:20:05.553Z,7.28
2022-11-16T13:22:33.555Z,7.24
2022-11-16T13:24:59.982Z,7.18
2022-11-16T13:27:26.676Z,6.87
2022-11-16T13:29:53.073Z,6.61
2022-11-16T13:32:19.488Z,6.83
2022-11-16T13:34:46.339Z,7.02
2022-11-16T13:37:12.786Z,7.07
2022-11-16T13:39:39.194Z,6.82
2022-11-16T13:42:05.836Z,6.97
2022-11-16T13:44:32.247Z,6.65
2022-11-16T13:46:58.648Z,6.61
2022-11-16T13:49:25.115Z,6.36
2022-11-16T13:51:51.596Z,6.20
2022-11-16T13:54:44.648Z,6.62
2022-11-16T13:57:04.438Z,6.22
2022-11-16T13:59:30.827Z,6.06
2022-11-16T14:01:57.667Z,6.30
2022-11-16T14:04:24.156Z,6.11
2022-11-16T14:06:50.601Z,6.32
2022-11-16T14:09:16.958Z,6.56
2022-11-16T14:11:43.333Z,6.89
2022-11-16T14:14:09.687Z,7.17
2022-11-16T14:16:36.070Z,7.13
2022-11-16T14:19:02.511Z,7.18
2022-11-16T14:21:28.932Z,7.13
2022-11-16T14:23:55.408Z,6.64
2022-11-16T14:26:21.912Z,6.83
2022-11-16T14:28:48.553Z,6.69
2022-11-16T14:31:14.966Z,6.88
2022-11-16T14:33:41.524Z,7.12
2022-11-16T14:36:07.957Z,6.59
2022-11-16T14:38:37.363Z,6.91
2022-11-16T14:41:04.055Z,7.10
2022-11-16T14:43:30.888Z,7.21
2022-11-16T14:45:57.397Z,7.14
2022-11-16T14:48:24.019Z,7.35
2022-11-16T14:50:50.697Z,6.92
2022-11-16T14:53:17.295Z,7.08
2022-11-16T14:55:43.723Z,6.98
2022-11-16T14:58:10.435Z,6.81
2022-11-16T15:00:36.860Z,7.02
2022-11-16T15:03:03.294Z,7.02
2022-11-16T15:05:29.794Z,6.80
2022-11-16T15:07:56.269Z,6.67
2022-11-16T15:10:22.660Z,6.84
2022-11-16T15:12:49.645Z,6.94
2022-11-16T15:15:16.342Z,7.02
2022-11-16T15:17:42.763Z,7.15
2022-11-16T15:20:09.197Z,7.17
2022-11-16T15:22:35.672Z,7.12
2022-11-16T15:25:02.260Z,7.07
2022-11-16T15:27:28.616Z,7.08
2022-11-16T15:29:55.017Z,7.10
2022-11-16T15:32:21.585Z,7.11
2022-11-16T15:34:48.047Z,7.01
2022-11-16T15:37:14.665Z,7.04
2022-11-16T15:39:42.090Z,7.15
2022-11-16T15:42:08.530Z,7.19
2022-11-16T15:44:35.184Z,7.19
2022-11-16T15:47:01.758Z,7.18
2022-11-16T15:49:28.261Z,6.93
2022-11-16T15:51:54.666Z,6.72
2022-11-16T15:54:21.393Z,6.65
2022-11-16T15:56:47.764Z,6.59
2022-11-16T15:59:14.151Z,6.62
2022-11-16T16:01:40.951Z,6.58
2022-11-16T16:04:07.348Z,6.81
2022-11-16T16:06:33.978Z,6.72
2022-11-16T16:09:00.560Z,6.83
2022-11-16T16:11:27.222Z,6.87
2022-11-16T16:13:56.127Z,6.62
2022-11-16T16:16:22.581Z,6.70
2022-11-16T16:18:49.249Z,6.51
2022-11-16T16:21:15.864Z,6.68
2022-11-16T16:23:42.293Z,6.85
2022-11-16T16:26:08.703Z,6.93
2022-11-16T16:28:35.290Z,6.72
2022-11-16T16:31:01.713Z,6.53
2022-11-16T16:33:28.101Z,6.37
2022-11-16T16:35:54.715Z,6.17
2022-11-16T16:38:21.280Z,6.10
2022-11-16T16:40:47.718Z,6.35
2022-11-16T16:43:14.120Z,6.53
2022-11-16T16:45:40.780Z,6.73
2022-11-16T16:48:07.357Z,6.78
2022-11-16T16:50:33.744Z,6.74
2022-11-16T16:53:00.472Z,6.74
2022-11-16T16:55:26.929Z,6.71
2022-11-16T16:57:53.333Z,6.52
2022-11-16T17:00:19.832Z,6.57
2022-11-16T17:02:46.231Z,6.69
2022-11-16T17:05:15.346Z,6.68
2022-11-16T17:07:42.398Z,6.74
2022-11-16T17:10:09.251Z,6.67
2022-11-16T17:12:35.814Z,6.68
2022-11-16T17:15:03.319Z,6.66
2022-11-16T17:17:30.198Z,6.73
2022-11-16T17:19:57.419Z,6.77
2022-11-16T17:22:24.152Z,6.82
2022-11-16T17:24:50.984Z,6.92
2022-11-16T17:27:17.643Z,7.07
2022-11-16T17:29:44.753Z,6.85
2022-11-16T17:32:13.972Z,6.70
2022-11-16T17:34:40.614Z,6.78
2022-11-16T17:37:07.118Z,6.82
2022-11-16T17:39:33.911Z,6.44
2022-11-16T17:42:00.950Z,6.59
2022-11-16T17:44:27.816Z,6.66
2022-11-16T17:46:54.905Z,6.60
2022-11-16T17:49:21.765Z,6.59
2022-11-16T17:51:48.777Z,6.73
2022-11-16T17:54:15.251Z,6.52
2022-11-16T17:56:41.952Z,6.72
2022-11-16T17:59:11.084Z,6.70
2022-11-16T18:01:37.790Z,6.80
2022-11-16T18:04:04.530Z,6.73
2022-11-16T18:06:31.444Z,6.68
2022-11-16T18:08:58.443Z,6.82
2022-11-16T18:11:26.045Z,6.84
2022-11-16T18:13:54.089Z,6.72
2022-11-16T18:16:20.866Z,6.68
2022-11-16T18:18:48.032Z,6.62
2022-11-16T18:21:20.365Z,6.73
2022-11-16T18:23:47.823Z,6.94
2022-11-16T18:26:16.344Z,7.00
2022-11-16T18:28:43.760Z,6.51
2022-11-16T18:31:10.270Z,6.66
2022-11-16T18:33:37.582Z,6.30
2022-11-16T18:36:04.779Z,6.12
2022-11-16T18:38:31.674Z,5.89
2022-11-16T18:40:58.547Z,5.72
2022-11-16T18:43:25.519Z,6.22
2022-11-16T18:45:52.067Z,6.34
2022-11-16T18:48:19.386Z,6.00
2022-11-16T18:50:46.367Z,6.31
2022-11-16T18:53:13.320Z,6.27
2022-11-16T18:55:40.116Z,6.39
2022-11-16T18:58:22.783Z,6.69
2022-11-16T19:00:50.187Z,6.79
2022-11-16T19:03:17.590Z,6.72
2022-11-16T19:05:45.721Z,6.59
2022-11-16T19:08:12.911Z,6.79
2022-11-16T19:10:39.965Z,6.60
2022-11-16T19:13:06.698Z,6.65
2022-11-16T19:15:33.155Z,6.40
2022-11-16T19:18:20.489Z,6.76
2022-11-16T19:20:47.061Z,6.96
2022-11-16T19:23:13.867Z,6.86
2022-11-16T19:25:40.830Z,6.92
2022-11-16T19:28:07.754Z,6.69
2022-11-16T19:30:35.141Z,6.84
2022-11-16T19:33:05.056Z,6.76
2022-11-16T19:35:31.785Z,6.86
2022-11-16T19:37:58.947Z,7.04
2022-11-16T19:40:26.201Z,7.00
2022-11-16T19:42:53.423Z,6.97
2022-11-16T19:45:20.162Z,7.02
2022-11-16T19:47:47.113Z,6.97
2022-11-16T19:50:14.240Z,6.90
2022-11-16T19:52:41.292Z,6.84
2022-11-16T19:55:09.897Z,6.78
2022-11-16T19:57:37.252Z,6.85
2022-11-16T20:00:05.116Z,6.70
2022-11-16T20:02:32.357Z,6.79
2022-11-16T20:04:59.670Z,6.64
2022-11-16T20:07:26.579Z,6.64
2022-11-16T20:09:53.672Z,6.68
2022-11-16T20:12:20.665Z,6.50
2022-11-16T20:14:48.885Z,6.64
2022-11-16T20:17:15.821Z,6.65
2022-11-16T20:19:43.145Z,6.64
2022-11-16T20:22:09.915Z,6.50
2022-11-16T20:24:36.940Z,6.19
2022-11-16T20:27:04.401Z,6.28
2022-11-16T20:29:32.129Z,6.43
2022-11-16T20:31:58.844Z,6.73
2022-11-16T20:34:25.251Z,6.75
2022-11-16T20:36:51.932Z,6.78
2022-11-16T20:39:18.446Z,6.41
2022-11-16T20:41:45.323Z,6.43
2022-11-16T20:44:15.990Z,6.23
2022-11-16T20:46:42.928Z,5.97
2022-11-16T20:49:09.384Z,6.26
2022-11-16T20:51:35.905Z,6.02
2022-11-16T20:54:02.515Z,6.21
2022-11-16T20:56:29.174Z,6.27
2022-11-16T20:58:55.628Z,6.46
2022-11-16T21:01:22.103Z,6.43
2022-11-16T21:03:48.925Z,6.31
2022-11-16T21:06:15.460Z,6.17
2022-11-16T21:08:42.087Z,6.35
2022-11-16T21:11:08.625Z,6.45
2022-11-16T21:13:35.258Z,6.66
2022-11-16T21:16:01.904Z,6.82
2022-11-16T21:18:30.839Z,6.79
2022-11-16T21:20:57.441Z,6.86
2022-11-16T21:23:23.791Z,6.83
2022-11-16T21:25:50.568Z,6.74
2022-11-16T21:28:20.115Z,6.75
2022-11-16T21:30:49.179Z,6.74
2022-11-16T21:33:15.600Z,6.80
2022-11-16T21:35:42.258Z,6.79
2022-11-16T21:38:09.101Z,6.83
2022-11-16T21:40:35.481Z,6.71
2022-11-16T21:43:01.997Z,6.66
2022-11-16T21:45:28.431Z,6.66
2022-11-16T21:47:54.812Z,6.67
2022-11-16T21:50:36.542Z,6.73
2022-11-16T21:53:02.993Z,6.73
2022-11-16T21:55:29.450Z,6.76
2022-11-16T21:57:55.998Z,6.85
2022-11-16T22:00:22.419Z,6.96
2022-11-16T22:02:48.896Z,6.90
2022-11-16T22:05:15.477Z,6.85
2022-11-16T22:07:41.893Z,6.89
2022-11-16T22:10:08.453Z,6.57
2022-11-16T22:12:35.035Z,6.70
2022-11-16T22:15:01.410Z,6.13
2022-11-16T22:17:28.914Z,6.25
2022-11-16T22:19:55.535Z,6.45
2022-11-16T22:22:21.954Z,6.34
2022-11-16T22:24:48.744Z,6.41
2022-11-16T22:27:15.431Z,6.48
2022-11-16T22:29:41.841Z,6.50
2022-11-16T22:32:08.295Z,6.71
2022-11-16T22:34:34.658Z,6.72
2022-11-16T22:37:01.314Z,6.79
2022-11-16T22:39:27.751Z,6.76
2022-11-16T22:41:54.131Z,6.75
2022-11-16T22:44:20.558Z,6.63
2022-11-16T22:46:47.013Z,6.72
2022-11-16T22:49:13.375Z,6.87
2022-11-16T22:51:41.832Z,6.72
2022-11-16T22:54:08.285Z,6.28
2022-11-16T22:56:34.642Z,6.32
2022-11-16T22:59:01.129Z,6.61
2022-11-16T23:01:27.502Z,6.29
2022-11-16T23:03:53.970Z,6.57
2022-11-16T23:06:20.580Z,6.82
2022-11-16T23:08:46.939Z,6.83
2022-11-16T23:11:13.431Z,7.02
2022-11-16T23:13:39.868Z,6.81
2022-11-16T23:16:06.235Z,6.77
2022-11-16T23:18:32.667Z,6.91
2022-11-16T23:20:59.176Z,6.90
2022-11-16T23:23:25.643Z,6.87
2022-11-16T23:25:52.060Z,6.73
2022-11-16T23:28:18.654Z,6.19
2022-11-16T23:30:45.046Z,6.22
2022-11-16T23:33:11.500Z,6.51
2022-11-16T23:35:37.909Z,6.47
2022-11-16T23:38:04.378Z,6.48
2022-11-16T23:40:30.787Z,6.68
2022-11-16T23:42:59.304Z,6.75
2022-11-16T23:45:25.891Z,6.73
2022-11-16T23:47:52.533Z,6.69
2022-11-16T23:50:19.012Z,6.70
2022-11-16T23:52:45.397Z,6.70
2022-11-16T23:55:11.771Z,6.72
2022-11-16T23:57:38.342Z,6.73
